createdAt,value
2023-05-14T00:00:48.737Z,12.59
2023-05-14T00:01:48.744Z,12.62
2023-05-14T00:02:48.827Z,12.59
2023-05-14T00:03:48.854Z,12.59
2023-05-14T00:04:48.703Z,12.56
2023-05-14T00:05:48.694Z,12.54
2023-05-14T00:06:48.676Z,12.54
2023-05-14T00:07:48.666Z,12.51
2023-05-14T00:08:48.657Z,12.46
2023-05-14T00:09:48.649Z,12.43
2023-05-14T00:10:48.638Z,12.37
2023-05-14T00:11:48.624Z,12.33
2023-05-14T00:12:48.611Z,12.26
2023-05-14T00:13:48.609Z,12.18
2023-05-14T00:14:48.587Z,12.12
2023-05-14T00:15:48.589Z,12.08
2023-05-14T00:16:48.567Z,12.07
2023-05-14T00:17:48.563Z,12.04
2023-05-14T00:18:48.589Z,12.05
2023-05-14T00:19:48.540Z,12.05
2023-05-14T00:20:48.519Z,12.01
2023-05-14T00:21:48.524Z,12.00
2023-05-14T00:22:48.517Z,11.96
2023-05-14T00:23:48.503Z,11.93
2023-05-14T00:24:48.478Z,11.93
2023-05-14T00:25:48.470Z,11.90
2023-05-14T00:26:48.453Z,11.88
2023-05-14T00:27:48.458Z,11.88
2023-05-14T00:28:48.430Z,11.88
2023-05-14T00:29:48.426Z,11.87
2023-05-14T00:30:48.411Z,11.85
2023-05-14T00:31:48.468Z,11.85
2023-05-14T00:32:48.437Z,11.84
2023-05-14T00:33:48.381Z,11.81
2023-05-14T00:34:48.364Z,11.75
2023-05-14T00:35:48.358Z,11.67
2023-05-14T00:36:48.354Z,11.63
2023-05-14T00:37:48.358Z,11.63
2023-05-14T00:38:48.321Z,11.60
2023-05-14T00:39:48.316Z,11.59
2023-05-14T00:40:48.298Z,11.57
2023-05-14T00:41:48.312Z,11.57
2023-05-14T00:42:48.280Z,11.57
2023-05-14T00:43:48.273Z,11.59
2023-05-14T00:44:48.255Z,11.57
2023-05-14T00:45:48.261Z,11.57
2023-05-14T00:46:48.295Z,11.59
2023-05-14T00:47:48.244Z,11.62
2023-05-14T00:48:48.214Z,11.60
2023-05-14T00:49:48.253Z,11.62
2023-05-14T00:50:48.206Z,11.60
2023-05-14T00:51:48.185Z,11.60
2023-05-14T00:52:48.167Z,11.59
2023-05-14T00:53:48.161Z,11.59
2023-05-14T00:54:48.151Z,11.57
2023-05-14T00:55:48.148Z,11.54
2023-05-14T00:56:48.124Z,11.51
2023-05-14T00:57:48.151Z,11.46
2023-05-14T00:58:48.098Z,11.42
2023-05-14T00:59:48.106Z,11.36
2023-05-14T01:00:48.133Z,11.39
2023-05-14T01:01:48.075Z,11.39
2023-05-14T01:02:48.137Z,11.41
2023-05-14T01:03:48.174Z,11.44
2023-05-14T01:04:48.066Z,11.46
2023-05-14T01:05:48.032Z,11.48
2023-05-14T01:06:48.011Z,11.51
2023-05-14T01:07:48.005Z,11.54
2023-05-14T01:08:47.991Z,11.56
2023-05-14T01:09:47.988Z,11.57
2023-05-14T01:10:47.974Z,11.57
2023-05-14T01:11:47.960Z,11.57
2023-05-14T01:12:47.962Z,11.59
2023-05-14T01:13:47.944Z,11.57
2023-05-14T01:14:47.939Z,11.59
2023-05-14T01:15:47.923Z,11.56
2023-05-14T01:16:47.998Z,11.54
2023-05-14T01:17:47.950Z,11.53
2023-05-14T01:18:47.936Z,11.53
2023-05-14T01:19:47.894Z,11.56
2023-05-14T01:20:47.864Z,11.57
2023-05-14T01:21:47.845Z,11.56
2023-05-14T01:22:47.883Z,11.54
2023-05-14T01:23:47.832Z,11.56
2023-05-14T01:24:47.816Z,11.60
2023-05-14T01:25:47.802Z,11.62
2023-05-14T01:26:47.794Z,11.67
2023-05-14T01:27:47.792Z,11.70
2023-05-14T01:28:47.781Z,11.75
2023-05-14T01:29:47.758Z,11.77
2023-05-14T01:30:47.751Z,11.78
2023-05-14T01:31:47.775Z,11.78
2023-05-14T01:32:47.956Z,11.78
2023-05-14T01:33:47.711Z,11.78
2023-05-14T01:34:47.707Z,11.79
2023-05-14T01:35:47.699Z,11.78
2023-05-14T01:36:47.692Z,11.79
2023-05-14T01:37:47.675Z,11.79
2023-05-14T01:38:47.671Z,11.79
2023-05-14T01:39:47.659Z,11.75
2023-05-14T01:40:47.647Z,11.74
2023-05-14T01:41:47.633Z,11.74
2023-05-14T01:42:47.683Z,11.77
2023-05-14T01:43:47.613Z,11.77
2023-05-14T01:44:47.590Z,11.77
2023-05-14T01:45:47.698Z,11.77
2023-05-14T01:46:47.585Z,11.75
2023-05-14T01:47:47.622Z,11.74
2023-05-14T01:48:47.552Z,11.72
2023-05-14T01:49:47.534Z,11.69
2023-05-14T01:50:47.529Z,11.63
2023-05-14T01:51:47.540Z,11.63
2023-05-14T01:52:47.513Z,11.67
2023-05-14T01:53:47.498Z,11.70
2023-05-14T01:54:47.490Z,11.70
2023-05-14T01:55:47.545Z,11.69
2023-05-14T01:56:47.470Z,11.66
2023-05-14T01:57:47.437Z,11.67
2023-05-14T01:58:47.445Z,11.67
2023-05-14T01:59:47.427Z,11.63
2023-05-14T02:00:47.428Z,11.62
2023-05-14T02:01:47.441Z,11.59
2023-05-14T02:02:47.429Z,11.56
2023-05-14T02:03:47.407Z,11.54
2023-05-14T02:04:47.384Z,11.53
2023-05-14T02:05:47.384Z,11.51
2023-05-14T02:06:47.349Z,11.48
2023-05-14T02:07:47.337Z,11.45
2023-05-14T02:08:47.332Z,11.44
2023-05-14T02:09:47.319Z,11.44
2023-05-14T02:10:47.311Z,11.39
2023-05-14T02:11:47.291Z,11.38
2023-05-14T02:12:47.288Z,11.36
2023-05-14T02:13:47.273Z,11.35
2023-05-14T02:14:47.274Z,11.31
2023-05-14T02:15:47.309Z,11.28
2023-05-14T02:16:47.241Z,11.24
2023-05-14T02:17:47.274Z,11.24
2023-05-14T02:18:47.292Z,11.20
2023-05-14T02:19:47.216Z,11.17
2023-05-14T02:20:47.198Z,11.16
2023-05-14T02:21:47.187Z,11.16
2023-05-14T02:22:47.176Z,11.12
2023-05-14T02:23:47.168Z,11.09
2023-05-14T02:24:47.167Z,11.06
2023-05-14T02:25:47.135Z,11.03
2023-05-14T02:26:47.129Z,10.98
2023-05-14T02:27:47.116Z,10.98
2023-05-14T02:28:47.120Z,10.94
2023-05-14T02:29:47.100Z,10.94
2023-05-14T02:30:47.087Z,10.93
2023-05-14T02:31:47.099Z,10.93
2023-05-14T02:32:47.118Z,10.88
2023-05-14T02:33:47.063Z,10.86
2023-05-14T02:34:47.044Z,10.84
2023-05-14T02:35:47.028Z,10.83
2023-05-14T02:36:47.050Z,10.80
2023-05-14T02:37:47.013Z,10.80
2023-05-14T02:38:47.003Z,10.80
2023-05-14T02:39:46.989Z,10.80
2023-05-14T02:40:46.976Z,10.80
2023-05-14T02:41:46.961Z,10.81
2023-05-14T02:42:46.961Z,10.83
2023-05-14T02:43:46.947Z,10.81
2023-05-14T02:44:46.933Z,10.78
2023-05-14T02:45:46.930Z,10.78
2023-05-14T02:46:46.974Z,10.75
2023-05-14T02:47:46.923Z,10.72
2023-05-14T02:48:47.009Z,10.72
2023-05-14T02:49:46.871Z,10.73
2023-05-14T02:50:46.873Z,10.70
2023-05-14T02:51:46.876Z,10.69
2023-05-14T02:52:46.858Z,10.70
2023-05-14T02:53:46.830Z,10.66
2023-05-14T02:54:46.830Z,10.66
2023-05-14T02:55:46.814Z,10.65
2023-05-14T02:56:46.815Z,10.63
2023-05-14T02:57:46.800Z,10.63
2023-05-14T02:58:46.778Z,10.60
2023-05-14T02:59:46.763Z,10.58
2023-05-14T03:00:46.802Z,10.60
2023-05-14T03:01:46.765Z,10.57
2023-05-14T03:02:46.872Z,10.55
2023-05-14T03:03:46.727Z,10.55
2023-05-14T03:04:46.723Z,10.54
2023-05-14T03:05:46.713Z,10.55
2023-05-14T03:06:46.713Z,10.57
2023-05-14T03:07:46.687Z,10.57
2023-05-14T03:08:46.679Z,10.52
2023-05-14T03:09:46.653Z,10.52
2023-05-14T03:10:46.659Z,10.52
2023-05-14T03:11:46.649Z,10.52
2023-05-14T03:12:46.624Z,10.49
2023-05-14T03:13:46.616Z,10.47
2023-05-14T03:14:46.599Z,10.46
2023-05-14T03:15:46.599Z,10.46
2023-05-14T03:16:46.608Z,10.43
2023-05-14T03:17:46.584Z,10.44
2023-05-14T03:18:46.591Z,10.43
2023-05-14T03:19:46.560Z,10.39
2023-05-14T03:20:46.543Z,10.39
2023-05-14T03:21:46.524Z,10.36
2023-05-14T03:22:46.516Z,10.31
2023-05-14T03:23:46.502Z,10.28
2023-05-14T03:24:46.493Z,10.28
2023-05-14T03:25:46.491Z,10.26
2023-05-14T03:26:46.570Z,10.28
2023-05-14T03:27:46.457Z,10.26
2023-05-14T03:28:46.539Z,10.28
2023-05-14T03:29:46.447Z,10.34
2023-05-14T03:30:46.442Z,10.35
2023-05-14T03:31:46.424Z,10.35
2023-05-14T03:32:46.468Z,10.38
2023-05-14T03:33:46.396Z,10.39
2023-05-14T03:34:46.389Z,10.39
2023-05-14T03:35:46.369Z,10.36
2023-05-14T03:36:46.361Z,10.35
2023-05-14T03:37:46.350Z,10.35
2023-05-14T03:38:46.346Z,10.32
2023-05-14T03:39:46.340Z,10.29
2023-05-14T03:40:46.317Z,10.29
2023-05-14T03:41:46.307Z,10.29
2023-05-14T03:42:46.293Z,10.25
2023-05-14T03:43:46.292Z,10.28
2023-05-14T03:44:46.296Z,10.28
2023-05-14T03:45:46.260Z,10.29
2023-05-14T03:46:46.245Z,10.29
2023-05-14T03:47:46.261Z,10.31
2023-05-14T03:48:46.312Z,10.31
2023-05-14T03:49:46.236Z,10.34
2023-05-14T03:50:46.196Z,10.35
2023-05-14T03:51:46.200Z,10.38
2023-05-14T03:52:46.196Z,10.38
2023-05-14T03:53:46.191Z,10.39
2023-05-14T03:54:46.176Z,10.44
2023-05-14T03:55:46.159Z,10.43
2023-05-14T03:56:46.141Z,10.43
2023-05-14T03:57:46.149Z,10.46
2023-05-14T03:58:46.122Z,10.52
2023-05-14T03:59:46.109Z,10.55
2023-05-14T04:00:46.092Z,10.60
2023-05-14T04:01:46.090Z,10.60
2023-05-14T04:02:46.140Z,10.58
2023-05-14T04:03:46.334Z,10.62
2023-05-14T04:04:46.067Z,10.65
2023-05-14T04:05:46.066Z,10.63
2023-05-14T04:06:46.041Z,10.62
2023-05-14T04:07:46.037Z,10.62
2023-05-14T04:08:46.071Z,10.63
2023-05-14T04:09:46.007Z,10.66
2023-05-14T04:10:45.985Z,10.69
2023-05-14T04:11:45.978Z,10.69
2023-05-14T04:12:45.971Z,10.68
2023-05-14T04:13:45.948Z,10.70
2023-05-14T04:14:45.963Z,10.73
2023-05-14T04:15:45.932Z,10.76
2023-05-14T04:16:45.967Z,10.76
2023-05-14T04:17:45.921Z,10.75
2023-05-14T04:18:45.958Z,10.76
2023-05-14T04:19:45.882Z,10.80
2023-05-14T04:20:45.876Z,10.84
2023-05-14T04:21:45.873Z,10.90
2023-05-14T04:22:45.856Z,10.91
2023-05-14T04:23:45.868Z,10.95
2023-05-14T04:24:45.877Z,11.01
2023-05-14T04:25:45.867Z,11.05
2023-05-14T04:26:45.826Z,11.05
2023-05-14T04:27:45.792Z,11.03
2023-05-14T04:28:45.793Z,11.03
2023-05-14T04:29:45.767Z,11.08
2023-05-14T04:30:45.776Z,11.13
2023-05-14T04:31:45.770Z,11.21
2023-05-14T04:32:45.791Z,11.28
2023-05-14T04:33:45.726Z,11.31
2023-05-14T04:34:45.717Z,11.36
2023-05-14T04:35:45.729Z,11.41
2023-05-14T04:36:45.695Z,11.45
2023-05-14T04:37:45.679Z,11.49
2023-05-14T04:38:45.678Z,11.53
2023-05-14T04:39:45.681Z,11.57
2023-05-14T04:40:45.698Z,11.59
2023-05-14T04:41:45.634Z,11.63
2023-05-14T04:42:45.622Z,11.67
2023-05-14T04:43:45.614Z,11.70
2023-05-14T04:44:45.633Z,11.72
2023-05-14T04:45:45.612Z,11.77
2023-05-14T04:46:45.600Z,11.79
2023-05-14T04:47:45.608Z,11.84
2023-05-14T04:48:45.565Z,11.87
2023-05-14T04:49:45.555Z,11.93
2023-05-14T04:50:45.586Z,11.96
2023-05-14T04:51:45.521Z,12.00
2023-05-14T04:52:45.547Z,12.00
2023-05-14T04:53:45.511Z,12.03
2023-05-14T04:54:45.546Z,12.07
2023-05-14T04:55:45.470Z,12.05
2023-05-14T04:56:45.475Z,12.05
2023-05-14T04:57:45.453Z,12.05
2023-05-14T04:58:45.456Z,12.04
2023-05-14T04:59:45.443Z,12.03
2023-05-14T05:00:45.438Z,12.04
2023-05-14T05:01:45.836Z,12.05
2023-05-14T05:02:45.438Z,12.11
2023-05-14T05:03:45.468Z,12.12
2023-05-14T05:04:45.386Z,12.15
2023-05-14T05:05:45.402Z,12.12
2023-05-14T05:06:45.357Z,12.13
2023-05-14T05:07:45.382Z,12.15
2023-05-14T05:08:45.353Z,12.13
2023-05-14T05:09:45.353Z,12.12
2023-05-14T05:10:45.325Z,12.12
2023-05-14T05:11:45.306Z,12.11
2023-05-14T05:12:45.314Z,12.11
2023-05-14T05:13:45.286Z,12.08
2023-05-14T05:14:45.284Z,12.08
2023-05-14T05:15:45.278Z,12.08
2023-05-14T05:16:45.254Z,12.07
2023-05-14T05:17:45.319Z,12.07
2023-05-14T05:18:45.267Z,12.08
2023-05-14T05:19:45.249Z,12.08
2023-05-14T05:20:45.209Z,12.08
2023-05-14T05:21:45.196Z,12.11
2023-05-14T05:22:45.203Z,12.08
2023-05-14T05:23:45.173Z,12.04
2023-05-14T05:24:45.199Z,12.04
2023-05-14T05:25:45.155Z,12.03
2023-05-14T05:26:45.154Z,12.00
2023-05-14T05:27:45.141Z,12.00
2023-05-14T05:28:45.125Z,11.98
2023-05-14T05:29:45.114Z,12.00
2023-05-14T05:30:45.138Z,12.00
2023-05-14T05:31:45.145Z,12.01
2023-05-14T05:32:45.139Z,12.04
2023-05-14T05:33:45.063Z,12.04
2023-05-14T05:34:45.055Z,12.04
2023-05-14T05:35:45.045Z,12.07
2023-05-14T05:36:45.044Z,12.11
2023-05-14T05:37:45.020Z,12.15
2023-05-14T05:38:45.012Z,12.19
2023-05-14T05:39:44.993Z,12.22
2023-05-14T05:40:45.016Z,12.26
2023-05-14T05:41:44.996Z,12.33
2023-05-14T05:42:44.975Z,12.34
2023-05-14T05:43:44.950Z,12.36
2023-05-14T05:44:44.943Z,12.43
2023-05-14T05:45:44.935Z,12.52
2023-05-14T05:46:44.931Z,12.55
2023-05-14T05:47:45.028Z,12.62
2023-05-14T05:48:44.901Z,12.71
2023-05-14T05:49:44.951Z,12.77
2023-05-14T05:50:44.929Z,12.89
2023-05-14T05:51:44.860Z,12.98
2023-05-14T05:52:44.871Z,13.03
2023-05-14T05:53:44.843Z,13.16
2023-05-14T05:54:44.840Z,13.31
2023-05-14T05:55:44.831Z,13.54
2023-05-14T05:56:44.814Z,13.71
2023-05-14T05:57:44.796Z,13.86
2023-05-14T05:58:44.789Z,13.99
2023-05-14T05:59:44.782Z,14.05
2023-05-14T06:00:44.760Z,14.05
2023-05-14T06:01:44.777Z,14.04
2023-05-14T06:02:44.826Z,14.06
2023-05-14T06:03:46.937Z,14.11
2023-05-14T06:04:44.739Z,14.16
2023-05-14T06:05:44.775Z,14.24
2023-05-14T06:06:44.713Z,14.35
2023-05-14T06:07:44.688Z,14.44
2023-05-14T06:08:44.697Z,14.54
2023-05-14T06:09:44.665Z,14.56
2023-05-14T06:10:46.850Z,14.59
2023-05-14T06:11:44.644Z,14.69
2023-05-14T06:12:44.669Z,14.74
2023-05-14T06:13:44.623Z,14.74
2023-05-14T06:14:44.611Z,14.82
2023-05-14T06:15:44.598Z,14.83
2023-05-14T06:16:44.624Z,14.78
2023-05-14T06:17:44.648Z,14.82
2023-05-14T06:18:44.610Z,14.79
2023-05-14T06:19:44.554Z,14.78
2023-05-14T06:20:44.549Z,14.83
2023-05-14T06:21:44.563Z,14.87
2023-05-14T06:22:44.533Z,14.94
2023-05-14T06:23:44.518Z,14.94
2023-05-14T06:24:44.502Z,14.95
2023-05-14T06:25:44.493Z,14.95
2023-05-14T06:26:44.474Z,14.98
2023-05-14T06:27:44.478Z,15.03
2023-05-14T06:28:44.456Z,15.07
2023-05-14T06:29:44.442Z,15.05
2023-05-14T06:30:44.501Z,15.15
2023-05-14T06:31:44.430Z,15.18
2023-05-14T06:32:44.515Z,15.20
2023-05-14T06:33:44.396Z,15.27
2023-05-14T06:34:44.395Z,15.37
2023-05-14T06:35:44.387Z,15.58
2023-05-14T06:36:44.381Z,15.52
2023-05-14T06:37:44.402Z,15.40
2023-05-14T06:38:44.348Z,15.52
2023-05-14T06:39:44.363Z,15.53
2023-05-14T06:40:45.270Z,15.71
2023-05-14T06:41:44.344Z,15.92
2023-05-14T06:42:44.301Z,15.98
2023-05-14T06:43:44.287Z,16.08
2023-05-14T06:44:44.280Z,16.06
2023-05-14T06:45:44.274Z,16.13
2023-05-14T06:46:44.266Z,16.18
2023-05-14T06:47:44.285Z,16.10
2023-05-14T06:48:44.286Z,15.96
2023-05-14T06:49:44.221Z,16.07
2023-05-14T06:50:44.209Z,16.17
2023-05-14T06:51:44.208Z,16.23
2023-05-14T06:52:44.182Z,16.22
2023-05-14T06:53:44.176Z,16.26
2023-05-14T06:54:44.265Z,16.42
2023-05-14T06:55:44.168Z,16.45
2023-05-14T06:56:44.156Z,16.45
2023-05-14T06:57:44.130Z,16.33
2023-05-14T06:58:44.121Z,16.47
2023-05-14T06:59:44.107Z,16.51
2023-05-14T07:00:44.111Z,16.66
2023-05-14T07:01:44.156Z,16.65
2023-05-14T07:02:44.112Z,16.57
2023-05-14T07:03:44.067Z,16.65
2023-05-14T07:04:44.106Z,16.88
2023-05-14T07:05:44.051Z,16.85
2023-05-14T07:06:44.033Z,16.91
2023-05-14T07:07:44.019Z,17.07
2023-05-14T07:08:44.014Z,16.96
2023-05-14T07:09:44.002Z,16.95
2023-05-14T07:10:43.995Z,17.09
2023-05-14T07:11:43.980Z,17.15
2023-05-14T07:12:43.962Z,17.14
2023-05-14T07:13:43.965Z,17.14
2023-05-14T07:14:43.951Z,17.09
2023-05-14T07:15:43.946Z,17.15
2023-05-14T07:16:43.931Z,17.17
2023-05-14T07:17:43.929Z,17.09
2023-05-14T07:18:43.939Z,17.10
2023-05-14T07:19:43.897Z,17.05
2023-05-14T07:20:43.881Z,17.18
2023-05-14T07:21:43.863Z,17.27
2023-05-14T07:22:43.861Z,17.27
2023-05-14T07:23:43.836Z,17.46
2023-05-14T07:24:43.846Z,17.57
2023-05-14T07:25:43.826Z,17.70
2023-05-14T07:26:43.815Z,17.73
2023-05-14T07:27:43.797Z,17.65
2023-05-14T07:28:43.799Z,17.57
2023-05-14T07:29:43.786Z,17.68
2023-05-14T07:30:43.769Z,17.63
2023-05-14T07:31:43.909Z,17.58
2023-05-14T07:32:43.784Z,17.57
2023-05-14T07:33:43.761Z,17.63
2023-05-14T07:34:43.721Z,17.89
2023-05-14T07:35:43.715Z,17.96
2023-05-14T07:36:43.715Z,17.94
2023-05-14T07:37:43.694Z,18.02
2023-05-14T07:38:43.689Z,17.96
2023-05-14T07:39:43.671Z,17.99
2023-05-14T07:40:43.678Z,17.95
2023-05-14T07:41:43.648Z,18.02
2023-05-14T07:42:43.645Z,17.89
2023-05-14T07:43:43.632Z,18.28
2023-05-14T07:44:43.612Z,18.62
2023-05-14T07:45:43.601Z,18.96
2023-05-14T07:46:43.589Z,19.30
2023-05-14T07:47:43.688Z,19.68
2023-05-14T07:48:43.647Z,20.12
2023-05-14T07:49:43.558Z,20.46
2023-05-14T07:50:43.608Z,20.56
2023-05-14T07:51:43.529Z,20.76
2023-05-14T07:52:43.546Z,21.30
2023-05-14T07:53:43.508Z,21.36
2023-05-14T07:54:43.524Z,21.71
2023-05-14T07:55:43.491Z,21.55
2023-05-14T07:56:43.497Z,22.02
2023-05-14T07:57:43.490Z,22.20
2023-05-14T07:58:43.480Z,22.46
2023-05-14T07:59:43.440Z,22.74
2023-05-14T08:00:43.445Z,23.26
2023-05-14T08:01:43.477Z,23.44
2023-05-14T08:02:43.589Z,23.42
2023-05-14T08:03:43.497Z,23.25
2023-05-14T08:04:43.390Z,22.74
2023-05-14T08:05:43.386Z,22.75
2023-05-14T08:06:43.380Z,22.67
2023-05-14T08:07:43.360Z,22.69
2023-05-14T08:08:43.347Z,23.15
2023-05-14T08:09:43.338Z,23.26
2023-05-14T08:10:43.392Z,23.75
2023-05-14T08:11:43.342Z,23.89
2023-05-14T08:12:43.309Z,24.67
2023-05-14T08:13:43.294Z,24.70
2023-05-14T08:14:43.282Z,24.41
2023-05-14T08:15:43.277Z,24.80
2023-05-14T08:16:43.325Z,24.79
2023-05-14T08:17:43.259Z,24.80
2023-05-14T08:18:43.313Z,25.02
2023-05-14T08:19:43.225Z,24.53
2023-05-14T08:20:43.229Z,24.61
2023-05-14T08:21:43.209Z,24.52
2023-05-14T08:22:43.201Z,24.98
2023-05-14T08:23:43.183Z,25.49
2023-05-14T08:24:43.222Z,25.79
2023-05-14T08:25:43.169Z,25.56
2023-05-14T08:26:43.152Z,25.24
2023-05-14T08:27:43.151Z,25.12
2023-05-14T08:28:43.167Z,24.67
2023-05-14T08:29:43.137Z,24.33
2023-05-14T08:30:43.158Z,24.89
2023-05-14T08:31:43.098Z,24.93
2023-05-14T08:32:43.143Z,24.84
2023-05-14T08:33:43.070Z,24.77
2023-05-14T08:34:44.075Z,24.93
2023-05-14T08:35:43.065Z,25.27
2023-05-14T08:36:43.044Z,24.46
2023-05-14T08:37:43.029Z,24.06
2023-05-14T08:38:43.035Z,24.04
2023-05-14T08:39:43.042Z,24.00
2023-05-14T08:40:43.001Z,24.45
2023-05-14T08:41:42.983Z,24.89
2023-05-14T08:42:42.980Z,25.64
2023-05-14T08:43:42.972Z,25.07
2023-05-14T08:44:42.966Z,25.23
2023-05-14T08:45:42.944Z,25.20
2023-05-14T08:46:42.941Z,25.22
2023-05-14T08:47:43.006Z,24.79
2023-05-14T08:48:42.964Z,24.29
2023-05-14T08:49:42.924Z,24.12
2023-05-14T08:50:42.889Z,23.53
2023-05-14T08:51:42.892Z,23.42
2023-05-14T08:52:42.886Z,23.23
2023-05-14T08:53:42.868Z,22.93
2023-05-14T08:54:42.846Z,22.60
2023-05-14T08:55:42.830Z,22.21
2023-05-14T08:56:42.826Z,21.79
2023-05-14T08:57:42.902Z,21.34
2023-05-14T08:58:42.805Z,20.66
2023-05-14T08:59:42.787Z,20.42
2023-05-14T09:00:42.778Z,20.15
2023-05-14T09:01:42.824Z,20.19
2023-05-14T09:02:42.819Z,20.40
2023-05-14T09:03:42.780Z,20.64
2023-05-14T09:04:42.741Z,20.85
2023-05-14T09:05:42.725Z,20.85
2023-05-14T09:06:42.713Z,20.73
2023-05-14T09:07:42.708Z,20.60
2023-05-14T09:08:42.691Z,20.73
2023-05-14T09:09:42.683Z,20.87
2023-05-14T09:10:42.670Z,20.83
2023-05-14T09:11:42.667Z,20.87
2023-05-14T09:12:42.667Z,20.90
2023-05-14T09:13:42.647Z,20.90
2023-05-14T09:14:42.626Z,20.97
2023-05-14T09:15:42.685Z,20.93
2023-05-14T09:16:42.782Z,20.85
2023-05-14T09:17:42.614Z,20.75
2023-05-14T09:18:42.642Z,20.76
2023-05-14T09:19:42.568Z,20.76
2023-05-14T09:20:42.570Z,20.69
2023-05-14T09:21:42.562Z,20.83
2023-05-14T09:22:42.580Z,20.71
2023-05-14T09:23:42.534Z,20.71
2023-05-14T09:24:42.518Z,20.72
2023-05-14T09:25:42.511Z,20.76
2023-05-14T09:26:42.506Z,20.93
2023-05-14T09:27:42.487Z,20.98
2023-05-14T09:28:42.475Z,21.00
2023-05-14T09:29:42.465Z,20.81
2023-05-14T09:30:42.457Z,20.79
2023-05-14T09:31:42.491Z,20.88
2023-05-14T09:32:42.495Z,20.94
2023-05-14T09:33:42.418Z,20.91
2023-05-14T09:34:42.429Z,20.93
2023-05-14T09:35:42.404Z,20.76
2023-05-14T09:36:42.390Z,20.73
2023-05-14T09:37:43.340Z,20.72
2023-05-14T09:38:42.381Z,20.71
2023-05-14T09:39:42.355Z,20.75
2023-05-14T09:40:42.355Z,20.76
2023-05-14T09:41:42.324Z,20.79
2023-05-14T09:42:42.324Z,20.82
2023-05-14T09:43:42.299Z,20.73
2023-05-14T09:44:42.310Z,20.71
2023-05-14T09:45:42.287Z,20.76
2023-05-14T09:46:42.270Z,20.82
2023-05-14T09:47:42.346Z,20.75
2023-05-14T09:48:42.272Z,20.83
2023-05-14T09:49:42.244Z,20.79
2023-05-14T09:50:42.229Z,20.76
2023-05-14T09:51:42.211Z,20.71
2023-05-14T09:52:42.204Z,20.63
2023-05-14T09:53:42.183Z,20.40
2023-05-14T09:54:42.192Z,20.41
2023-05-14T09:55:42.170Z,20.50
2023-05-14T09:56:42.165Z,20.54
2023-05-14T09:57:42.174Z,20.41
2023-05-14T09:58:42.151Z,20.51
2023-05-14T09:59:42.132Z,20.63
2023-05-14T10:00:42.114Z,20.75
2023-05-14T10:01:42.273Z,20.87
2023-05-14T10:02:42.120Z,20.78
2023-05-14T10:03:42.088Z,20.72
2023-05-14T10:04:42.121Z,20.85
2023-05-14T10:05:42.061Z,20.90
2023-05-14T10:06:42.103Z,20.93
2023-05-14T10:07:42.070Z,20.88
2023-05-14T10:08:42.059Z,20.96
2023-05-14T10:09:42.017Z,21.05
2023-05-14T10:10:42.019Z,21.19
2023-05-14T10:11:41.997Z,21.15
2023-05-14T10:12:42.001Z,21.11
2023-05-14T10:13:41.986Z,21.06
2023-05-14T10:14:41.962Z,21.11
2023-05-14T10:15:41.954Z,21.08
2023-05-14T10:16:42.023Z,21.08
2023-05-14T10:17:42.497Z,21.01
2023-05-14T10:18:41.966Z,21.03
2023-05-14T10:19:41.911Z,21.06
2023-05-14T10:20:41.900Z,21.05
2023-05-14T10:21:41.887Z,21.11
2023-05-14T10:22:41.882Z,21.11
2023-05-14T10:23:41.867Z,21.11
2023-05-14T10:24:42.461Z,21.12
2023-05-14T10:25:41.866Z,21.09
2023-05-14T10:26:42.416Z,21.05
2023-05-14T10:27:41.888Z,21.08
2023-05-14T10:28:42.440Z,21.09
2023-05-14T10:29:41.858Z,21.13
2023-05-14T10:30:41.814Z,21.26
2023-05-14T10:31:42.517Z,21.43
2023-05-14T10:32:42.093Z,21.48
2023-05-14T10:33:41.863Z,21.59
2023-05-14T10:34:41.763Z,21.56
2023-05-14T10:35:41.959Z,21.63
2023-05-14T10:36:44.389Z,21.73
2023-05-14T10:37:42.504Z,21.75
2023-05-14T10:38:41.776Z,21.82
2023-05-14T10:39:41.689Z,21.77
2023-05-14T10:40:41.688Z,21.79
2023-05-14T10:41:41.927Z,21.49
2023-05-14T10:42:41.656Z,21.11
2023-05-14T10:43:41.647Z,21.00
2023-05-14T10:44:41.632Z,20.98
2023-05-14T10:45:41.626Z,20.98
2023-05-14T10:46:41.666Z,21.03
2023-05-14T10:47:41.655Z,21.18
2023-05-14T10:48:41.585Z,21.21
2023-05-14T10:49:43.837Z,21.22
2023-05-14T10:50:42.350Z,21.12
2023-05-14T10:51:41.612Z,21.09
2023-05-14T10:52:41.549Z,21.09
2023-05-14T10:53:41.563Z,21.13
2023-05-14T10:54:41.537Z,21.13
2023-05-14T10:55:41.519Z,21.05
2023-05-14T10:56:41.524Z,20.91
2023-05-14T10:57:41.494Z,20.93
2023-05-14T10:58:41.466Z,20.90
2023-05-14T10:59:41.479Z,20.81
2023-05-14T11:00:41.444Z,20.63
2023-05-14T11:01:41.480Z,20.64
2023-05-14T11:02:41.487Z,20.71
2023-05-14T11:03:41.522Z,20.76
2023-05-14T11:04:41.415Z,20.78
2023-05-14T11:05:41.395Z,20.73
2023-05-14T11:06:41.383Z,20.56
2023-05-14T11:07:41.382Z,20.58
2023-05-14T11:08:41.364Z,20.63
2023-05-14T11:09:41.373Z,20.61
2023-05-14T11:10:41.351Z,20.66
2023-05-14T11:11:41.333Z,20.64
2023-05-14T11:12:41.322Z,20.61
2023-05-14T11:13:41.316Z,20.72
2023-05-14T11:14:41.310Z,20.87
2023-05-14T11:15:41.293Z,20.78
2023-05-14T11:16:41.279Z,20.83
2023-05-14T11:17:41.389Z,20.94
2023-05-14T11:18:41.283Z,21.00
2023-05-14T11:19:41.267Z,20.90
2023-05-14T11:20:41.236Z,20.97
2023-05-14T11:21:41.270Z,21.00
2023-05-14T11:22:41.310Z,21.09
2023-05-14T11:23:41.241Z,21.06
2023-05-14T11:24:41.189Z,21.11
2023-05-14T11:25:41.182Z,21.11
2023-05-14T11:26:41.342Z,21.19
2023-05-14T11:27:41.305Z,21.22
2023-05-14T11:28:41.182Z,21.33
2023-05-14T11:29:41.136Z,21.18
2023-05-14T11:30:41.142Z,21.16
2023-05-14T11:31:41.153Z,21.21
2023-05-14T11:32:41.155Z,21.31
2023-05-14T11:33:41.099Z,21.34
2023-05-14T11:34:41.081Z,21.45
2023-05-14T11:35:41.069Z,21.56
2023-05-14T11:36:41.059Z,21.68
2023-05-14T11:37:41.052Z,21.85
2023-05-14T11:38:41.051Z,22.04
2023-05-14T11:39:41.021Z,22.15
2023-05-14T11:40:41.013Z,22.21
2023-05-14T11:41:41.001Z,22.23
2023-05-14T11:42:41.013Z,22.05
2023-05-14T11:43:40.978Z,22.02
2023-05-14T11:44:40.964Z,21.96
2023-05-14T11:45:40.984Z,21.93
2023-05-14T11:46:40.989Z,21.81
2023-05-14T11:47:40.958Z,21.74
2023-05-14T11:48:40.929Z,21.70
2023-05-14T11:49:40.910Z,21.67
2023-05-14T11:50:40.900Z,21.59
2023-05-14T11:51:40.915Z,21.63
2023-05-14T11:52:40.896Z,21.61
2023-05-14T11:53:40.864Z,21.58
2023-05-14T11:54:40.859Z,21.66
2023-05-14T11:55:40.848Z,21.74
2023-05-14T11:56:40.850Z,21.71
2023-05-14T11:57:40.958Z,21.45
2023-05-14T11:58:40.809Z,21.27
2023-05-14T11:59:40.792Z,21.12
2023-05-14T12:00:40.798Z,21.11
2023-05-14T12:01:40.781Z,21.12
2023-05-14T12:02:40.879Z,21.00
2023-05-14T12:03:40.918Z,21.05
2023-05-14T12:04:40.764Z,21.09
2023-05-14T12:05:40.736Z,20.96
2023-05-14T12:06:40.732Z,20.87
2023-05-14T12:07:41.005Z,20.93
2023-05-14T12:08:40.699Z,21.05
2023-05-14T12:09:42.537Z,21.09
2023-05-14T12:10:40.680Z,21.16
2023-05-14T12:11:40.667Z,21.09
2023-05-14T12:12:40.654Z,20.76
2023-05-14T12:13:40.660Z,20.82
2023-05-14T12:14:40.627Z,20.90
2023-05-14T12:15:40.656Z,20.90
2023-05-14T12:16:40.627Z,20.94
2023-05-14T12:17:40.646Z,21.03
2023-05-14T12:18:40.628Z,21.12
2023-05-14T12:19:40.580Z,21.13
2023-05-14T12:20:40.572Z,21.13
2023-05-14T12:21:40.553Z,21.15
2023-05-14T12:22:40.542Z,21.24
2023-05-14T12:23:40.526Z,21.30
2023-05-14T12:24:40.533Z,21.37
2023-05-14T12:25:40.512Z,21.42
2023-05-14T12:26:40.497Z,21.31
2023-05-14T12:27:40.505Z,21.22
2023-05-14T12:28:40.477Z,21.26
2023-05-14T12:29:40.470Z,21.28
2023-05-14T12:30:40.469Z,21.30
2023-05-14T12:31:40.496Z,21.37
2023-05-14T12:32:40.440Z,21.34
2023-05-14T12:33:40.419Z,21.36
2023-05-14T12:34:40.421Z,21.37
2023-05-14T12:35:40.403Z,21.34
2023-05-14T12:36:40.416Z,21.48
2023-05-14T12:37:40.372Z,21.37
2023-05-14T12:38:40.375Z,21.42
2023-05-14T12:39:40.365Z,21.49
2023-05-14T12:40:40.340Z,21.63
2023-05-14T12:41:40.327Z,21.52
2023-05-14T12:42:40.363Z,21.70
2023-05-14T12:43:40.311Z,21.70
2023-05-14T12:44:40.312Z,21.67
2023-05-14T12:45:40.315Z,21.66
2023-05-14T12:46:40.282Z,21.58
2023-05-14T12:47:40.388Z,21.59
2023-05-14T12:48:40.266Z,21.59
2023-05-14T12:49:40.229Z,21.63
2023-05-14T12:50:40.231Z,21.68
2023-05-14T12:51:40.212Z,21.38
2023-05-14T12:52:40.321Z,21.30